sensor_id;sensor_type;location;lat;lon;timestamp;temperature;humidity
49855;DHT22;35752;52.164;21.244;2022-11-02T00:01:40;11.00;99.90
49855;DHT22;35752;52.164;21.244;2022-11-02T00:04:06;10.90;99.90
49855;DHT22;35752;52.164;21.244;2022-11-02T00:06:32;10.90;99.90
49855;DHT22;35752;52.164;21.244;2022-11-02T00:08:57;11.00;99.90
49855;DHT22;35752;52.164;21.244;2022-11-02T00:11:23;10.90;99.90
49855;DHT22;35752;52.164;21.244;2022-11-02T00:13:48;10.90;99.90
49855;DHT22;35752;52.164;21.244;2022-11-02T00:16:14;10.90;99.90
49855;DHT22;35752;52.164;21.244;2022-11-02T00:18:42;10.90;99.90
49855;DHT22;35752;52.164;21.244;2022-11-02T00:21:09;10.90;99.90
49855;DHT22;35752;52.164;21.244;2022-11-02T00:23:34;10.90;99.90
49855;DHT22;35752;52.164;21.244;2022-11-02T00:26:00;10.90;99.90
49855;DHT22;35752;52.164;21.244;2022-11-02T00:28:26;10.90;99.90
49855;DHT22;35752;52.164;21.244;2022-11-02T00:30:52;10.90;99.90
49855;DHT22;35752;52.164;21.244;2022-11-02T00:33:18;10.90;99.90
49855;DHT22;35752;52.164;21.244;2022-11-02T00:35:43;10.90;99.90
49855;DHT22;35752;52.164;21.244;2022-11-02T00:38:10;10.90;99.90
49855;DHT22;35752;52.164;21.244;2022-11-02T00:40:35;10.80;99.90
49855;DHT22;35752;52.164;21.244;2022-11-02T00:43:01;10.80;99.90
49855;DHT22;35752;52.164;21.244;2022-11-02T00:45:26;10.80;99.90
49855;DHT22;35752;52.164;21.244;2022-11-02T00:47:52;10.80;99.90
49855;DHT22;35752;52.164;21.244;2022-11-02T00:50:17;10.80;99.90
49855;DHT22;35752;52.164;21.244;2022-11-02T00:52:43;10.80;99.90
49855;DHT22;35752;52.164;21.244;2022-11-02T00:55:09;10.80;99.90
49855;DHT22;35752;52.164;21.244;2022-11-02T00:57:38;10.80;99.90
49855;DHT22;35752;52.164;21.244;2022-11-02T01:00:05;10.90;99.90
49855;DHT22;35752;52.164;21.244;2022-11-02T01:02:33;10.90;99.90
49855;DHT22;35752;52.164;21.244;2022-11-02T01:04:59;10.90;99.90
49855;DHT22;35752;52.164;21.244;2022-11-02T01:07:26;10.90;99.90
49855;DHT22;35752;52.164;21.244;2022-11-02T01:09:51;10.90;99.90
49855;DHT22;35752;52.164;21.244;2022-11-02T01:12:17;10.90;99.90
49855;DHT22;35752;52.164;21.244;2022-11-02T01:14:44;10.90;99.90
49855;DHT22;35752;52.164;21.244;2022-11-02T01:17:10;10.90;99.90
49855;DHT22;35752;52.164;21.244;2022-11-02T01:19:35;10.90;99.90
49855;DHT22;35752;52.164;21.244;2022-11-02T01:22:00;11.00;99.90
49855;DHT22;35752;52.164;21.244;2022-11-02T01:24:26;10.90;99.90
49855;DHT22;35752;52.164;21.244;2022-11-02T01:26:51;11.00;99.90
49855;DHT22;35752;52.164;21.244;2022-11-02T01:29:17;11.00;99.90
49855;DHT22;35752;52.164;21.244;2022-11-02T01:31:43;11.00;99.90
49855;DHT22;35752;52.164;21.244;2022-11-02T01:34:09;11.00;99.90
49855;DHT22;35752;52.164;21.244;2022-11-02T01:36:35;11.00;99.90
49855;DHT22;35752;52.164;21.244;2022-11-02T01:39:00;11.00;99.90
49855;DHT22;35752;52.164;21.244;2022-11-02T01:41:25;10.90;99.90
49855;DHT22;35752;52.164;21.244;2022-11-02T01:43:53;10.90;99.90
49855;DHT22;35752;52.164;21.244;2022-11-02T01:46:21;11.00;99.90
49855;DHT22;35752;52.164;21.244;2022-11-02T01:48:52;11.00;99.90
49855;DHT22;35752;52.164;21.244;2022-11-02T01:51:28;11.00;99.90
49855;DHT22;35752;52.164;21.244;2022-11-02T01:53:56;11.00;99.90
49855;DHT22;35752;52.164;21.244;2022-11-02T01:56:23;11.00;99.90
49855;DHT22;35752;52.164;21.244;2022-11-02T01:58:51;11.00;99.90
49855;DHT22;35752;52.164;21.244;2022-11-02T02:01:17;11.00;99.90
49855;DHT22;35752;52.164;21.244;2022-11-02T02:03:43;11.00;99.90
49855;DHT22;35752;52.164;21.244;2022-11-02T02:06:09;11.00;99.90
49855;DHT22;35752;52.164;21.244;2022-11-02T02:08:38;11.00;99.90
49855;DHT22;35752;52.164;21.244;2022-11-02T02:13:49;11.10;99.90
49855;DHT22;35752;52.164;21.244;2022-11-02T02:16:15;11.10;99.90
49855;DHT22;35752;52.164;21.244;2022-11-02T02:18:47;11.10;99.90
49855;DHT22;35752;52.164;21.244;2022-11-02T02:21:24;11.10;99.90
49855;DHT22;35752;52.164;21.244;2022-11-02T02:24:04;11.10;99.90
49855;DHT22;35752;52.164;21.244;2022-11-02T02:27:19;11.10;99.90
49855;DHT22;35752;52.164;21.244;2022-11-02T02:29:20;11.10;99.90
49855;DHT22;35752;52.164;21.244;2022-11-02T02:31:49;11.10;99.90
49855;DHT22;35752;52.164;21.244;2022-11-02T02:36:50;11.10;99.90
49855;DHT22;35752;52.164;21.244;2022-11-02T02:39:22;11.10;99.90
49855;DHT22;35752;52.164;21.244;2022-11-02T02:41:53;11.10;99.90
49855;DHT22;35752;52.164;21.244;2022-11-02T02:44:21;11.10;99.90
49855;DHT22;35752;52.164;21.244;2022-11-02T02:46:52;11.10;99.90
49855;DHT22;35752;52.164;21.244;2022-11-02T02:49:19;11.10;99.90
49855;DHT22;35752;52.164;21.244;2022-11-02T02:51:46;11.10;99.90
49855;DHT22;35752;52.164;21.244;2022-11-02T02:54:17;11.10;99.90
49855;DHT22;35752;52.164;21.244;2022-11-02T02:56:45;11.10;99.90
49855;DHT22;35752;52.164;21.244;2022-11-02T02:59:26;11.10;99.90
49855;DHT22;35752;52.164;21.244;2022-11-02T03:01:52;11.10;99.90
49855;DHT22;35752;52.164;21.244;2022-11-02T03:04:18;11.10;99.90
49855;DHT22;35752;52.164;21.244;2022-11-02T03:06:45;11.10;99.90
49855;DHT22;35752;52.164;21.244;2022-11-02T03:11:56;11.10;99.90
49855;DHT22;35752;52.164;21.244;2022-11-02T03:19:41;11.10;99.90
49855;DHT22;35752;52.164;21.244;2022-11-02T03:22:11;11.10;99.90
49855;DHT22;35752;52.164;21.244;2022-11-02T03:24:43;11.10;99.90
49855;DHT22;35752;52.164;21.244;2022-11-02T03:29:41;11.20;99.90
49855;DHT22;35752;52.164;21.244;2022-11-02T03:32:20;11.20;99.90
49855;DHT22;35752;52.164;21.244;2022-11-02T03:34:56;11.20;99.90
49855;DHT22;35752;52.164;21.244;2022-11-02T03:37:27;11.20;99.90
49855;DHT22;35752;52.164;21.244;2022-11-02T03:39:56;11.20;99.90
49855;DHT22;35752;52.164;21.244;2022-11-02T03:42:24;11.10;99.90
49855;DHT22;35752;52.164;21.244;2022-11-02T03:44:52;11.10;99.90
49855;DHT22;35752;52.164;21.244;2022-11-02T03:47:19;11.10;99.90
49855;DHT22;35752;52.164;21.244;2022-11-02T03:49:45;11.10;99.90
49855;DHT22;35752;52.164;21.244;2022-11-02T03:52:13;11.20;99.90
49855;DHT22;35752;52.164;21.244;2022-11-02T03:54:48;11.20;99.90
49855;DHT22;35752;52.164;21.244;2022-11-02T03:57:17;11.20;99.90
49855;DHT22;35752;52.164;21.244;2022-11-02T03:59:43;11.20;99.90
49855;DHT22;35752;52.164;21.244;2022-11-02T04:02:09;11.20;99.90
49855;DHT22;35752;52.164;21.244;2022-11-02T04:04:45;11.20;99.90
49855;DHT22;35752;52.164;21.244;2022-11-02T04:07:11;11.20;99.90
49855;DHT22;35752;52.164;21.244;2022-11-02T04:09:37;11.20;99.90
49855;DHT22;35752;52.164;21.244;2022-11-02T04:12:02;11.20;99.90
49855;DHT22;35752;52.164;21.244;2022-11-02T04:14:46;11.20;99.90
49855;DHT22;35752;52.164;21.244;2022-11-02T04:17:12;11.20;99.90
49855;DHT22;35752;52.164;21.244;2022-11-02T04:19:56;11.20;99.90
49855;DHT22;35752;52.164;21.244;2022-11-02T04:22:22;11.30;99.90
49855;DHT22;35752;52.164;21.244;2022-11-02T04:25:06;11.30;99.90
49855;DHT22;35752;52.164;21.244;2022-11-02T04:27:45;11.20;99.90
49855;DHT22;35752;52.164;21.244;2022-11-02T04:30:12;11.30;99.90
49855;DHT22;35752;52.164;21.244;2022-11-02T04:32:38;11.30;99.90
49855;DHT22;35752;52.164;21.244;2022-11-02T04:35:22;11.30;99.90
49855;DHT22;35752;52.164;21.244;2022-11-02T04:37:48;11.30;99.90
49855;DHT22;35752;52.164;21.244;2022-11-02T04:40:32;11.30;99.90
49855;DHT22;35752;52.164;21.244;2022-11-02T04:42:58;11.30;99.90
49855;DHT22;35752;52.164;21.244;2022-11-02T04:45:23;11.30;99.90
49855;DHT22;35752;52.164;21.244;2022-11-02T04:47:49;11.40;99.90
49855;DHT22;35752;52.164;21.244;2022-11-02T04:50:14;11.40;99.90
49855;DHT22;35752;52.164;21.244;2022-11-02T04:52:40;11.40;99.90
49855;DHT22;35752;52.164;21.244;2022-11-02T04:55:06;11.40;99.90
49855;DHT22;35752;52.164;21.244;2022-11-02T04:57:31;11.40;99.90
49855;DHT22;35752;52.164;21.244;2022-11-02T04:59:57;11.40;99.90
49855;DHT22;35752;52.164;21.244;2022-11-02T05:02:22;11.40;99.90
49855;DHT22;35752;52.164;21.244;2022-11-02T05:04:48;11.40;99.90
49855;DHT22;35752;52.164;21.244;2022-11-02T05:07:13;11.40;99.90
49855;DHT22;35752;52.164;21.244;2022-11-02T05:09:39;11.50;99.90
49855;DHT22;35752;52.164;21.244;2022-11-02T05:12:06;11.50;99.90
49855;DHT22;35752;52.164;21.244;2022-11-02T05:14:32;11.50;99.90
49855;DHT22;35752;52.164;21.244;2022-11-02T05:16:57;11.50;99.90
49855;DHT22;35752;52.164;21.244;2022-11-02T05:19:23;11.50;99.90
49855;DHT22;35752;52.164;21.244;2022-11-02T05:21:49;11.60;99.90
49855;DHT22;35752;52.164;21.244;2022-11-02T05:24:14;11.60;99.90
49855;DHT22;35752;52.164;21.244;2022-11-02T05:26:40;11.60;99.90
49855;DHT22;35752;52.164;21.244;2022-11-02T05:29:06;11.60;99.90
49855;DHT22;35752;52.164;21.244;2022-11-02T05:31:31;11.60;99.90
49855;DHT22;35752;52.164;21.244;2022-11-02T05:33:57;11.60;99.90
49855;DHT22;35752;52.164;21.244;2022-11-02T05:36:22;11.60;99.90
49855;DHT22;35752;52.164;21.244;2022-11-02T05:38:52;11.60;99.90
49855;DHT22;35752;52.164;21.244;2022-11-02T05:41:18;11.60;99.90
49855;DHT22;35752;52.164;21.244;2022-11-02T05:43:43;11.60;99.90
49855;DHT22;35752;52.164;21.244;2022-11-02T05:46:09;11.60;99.90
49855;DHT22;35752;52.164;21.244;2022-11-02T05:48:34;11.70;99.90
49855;DHT22;35752;52.164;21.244;2022-11-02T05:51:01;11.70;99.90
49855;DHT22;35752;52.164;21.244;2022-11-02T05:53:27;11.70;99.90
49855;DHT22;35752;52.164;21.244;2022-11-02T05:55:57;11.70;99.90
49855;DHT22;35752;52.164;21.244;2022-11-02T05:58:22;11.70;99.90
49855;DHT22;35752;52.164;21.244;2022-11-02T06:00:48;11.70;99.90
49855;DHT22;35752;52.164;21.244;2022-11-02T06:03:14;11.80;99.90
49855;DHT22;35752;52.164;21.244;2022-11-02T06:05:39;11.80;99.90
49855;DHT22;35752;52.164;21.244;2022-11-02T06:08:05;11.80;99.90
49855;DHT22;35752;52.164;21.244;2022-11-02T06:10:30;11.80;99.90
49855;DHT22;35752;52.164;21.244;2022-11-02T06:12:56;11.80;99.90
49855;DHT22;35752;52.164;21.244;2022-11-02T06:15:22;11.90;99.90
49855;DHT22;35752;52.164;21.244;2022-11-02T06:17:48;11.90;99.90
49855;DHT22;35752;52.164;21.244;2022-11-02T06:20:13;11.90;99.90
49855;DHT22;35752;52.164;21.244;2022-11-02T06:22:39;11.90;99.90
49855;DHT22;35752;52.164;21.244;2022-11-02T06:25:05;11.90;99.90
49855;DHT22;35752;52.164;21.244;2022-11-02T06:27:31;12.00;99.90
49855;DHT22;35752;52.164;21.244;2022-11-02T06:29:57;12.00;99.90
49855;DHT22;35752;52.164;21.244;2022-11-02T06:32:22;11.90;99.90
49855;DHT22;35752;52.164;21.244;2022-11-02T06:34:48;12.00;99.90
49855;DHT22;35752;52.164;21.244;2022-11-02T06:37:13;12.00;99.90
49855;DHT22;35752;52.164;21.244;2022-11-02T06:39:39;12.00;99.90
49855;DHT22;35752;52.164;21.244;2022-11-02T06:42:04;12.10;99.90
49855;DHT22;35752;52.164;21.244;2022-11-02T06:44:30;12.10;99.90
49855;DHT22;35752;52.164;21.244;2022-11-02T06:46:55;12.10;99.90
49855;DHT22;35752;52.164;21.244;2022-11-02T06:49:21;12.10;99.90
49855;DHT22;35752;52.164;21.244;2022-11-02T06:51:49;12.10;99.90
49855;DHT22;35752;52.164;21.244;2022-11-02T06:54:14;12.10;99.90
49855;DHT22;35752;52.164;21.244;2022-11-02T06:56:40;12.10;99.90
49855;DHT22;35752;52.164;21.244;2022-11-02T06:59:05;12.10;99.90
49855;DHT22;35752;52.164;21.244;2022-11-02T07:01:31;12.10;99.90
49855;DHT22;35752;52.164;21.244;2022-11-02T07:03:57;12.10;99.90
49855;DHT22;35752;52.164;21.244;2022-11-02T07:06:22;12.20;99.90
49855;DHT22;35752;52.164;21.244;2022-11-02T07:08:48;12.20;99.90
49855;DHT22;35752;52.164;21.244;2022-11-02T07:11:13;12.20;99.90
49855;DHT22;35752;52.164;21.244;2022-11-02T07:13:40;12.20;99.90
49855;DHT22;35752;52.164;21.244;2022-11-02T07:16:06;12.20;99.90
49855;DHT22;35752;52.164;21.244;2022-11-02T07:18:31;12.20;99.90
49855;DHT22;35752;52.164;21.244;2022-11-02T07:20:57;12.20;99.90
49855;DHT22;35752;52.164;21.244;2022-11-02T07:23:23;12.30;99.90
49855;DHT22;35752;52.164;21.244;2022-11-02T07:25:49;12.30;99.90
49855;DHT22;35752;52.164;21.244;2022-11-02T07:28:14;12.20;99.90
49855;DHT22;35752;52.164;21.244;2022-11-02T07:30:40;12.30;99.90
49855;DHT22;35752;52.164;21.244;2022-11-02T07:33:05;12.30;99.90
49855;DHT22;35752;52.164;21.244;2022-11-02T07:35:31;12.30;99.90
49855;DHT22;35752;52.164;21.244;2022-11-02T07:38:02;12.30;99.90
49855;DHT22;35752;52.164;21.244;2022-11-02T07:40:28;12.30;99.90
49855;DHT22;35752;52.164;21.244;2022-11-02T07:42:54;12.40;99.90
49855;DHT22;35752;52.164;21.244;2022-11-02T07:45:20;12.40;99.90
49855;DHT22;35752;52.164;21.244;2022-11-02T07:47:46;12.40;99.90
49855;DHT22;35752;52.164;21.244;2022-11-02T07:50:12;12.50;99.90
49855;DHT22;35752;52.164;21.244;2022-11-02T07:52:48;12.50;99.90
49855;DHT22;35752;52.164;21.244;2022-11-02T07:55:14;12.50;99.90
49855;DHT22;35752;52.164;21.244;2022-11-02T07:57:40;12.60;99.90
49855;DHT22;35752;52.164;21.244;2022-11-02T08:00:09;12.60;99.90
49855;DHT22;35752;52.164;21.244;2022-11-02T08:02:36;12.70;99.90
49855;DHT22;35752;52.164;21.244;2022-11-02T08:05:01;12.70;99.90
49855;DHT22;35752;52.164;21.244;2022-11-02T08:07:27;12.80;99.90
49855;DHT22;35752;52.164;21.244;2022-11-02T08:09:52;12.80;99.90
49855;DHT22;35752;52.164;21.244;2022-11-02T08:12:18;12.80;99.90
49855;DHT22;35752;52.164;21.244;2022-11-02T08:14:43;12.80;99.90
49855;DHT22;35752;52.164;21.244;2022-11-02T08:17:09;12.80;99.90
49855;DHT22;35752;52.164;21.244;2022-11-02T08:19:34;12.80;99.90
49855;DHT22;35752;52.164;21.244;2022-11-02T08:22:00;12.90;99.90
49855;DHT22;35752;52.164;21.244;2022-11-02T08:24:25;12.90;99.90
49855;DHT22;35752;52.164;21.244;2022-11-02T08:26:51;13.00;99.90
49855;DHT22;35752;52.164;21.244;2022-11-02T08:29:16;13.00;99.90
49855;DHT22;35752;52.164;21.244;2022-11-02T08:31:42;13.00;99.90
49855;DHT22;35752;52.164;21.244;2022-11-02T08:34:08;13.10;99.90
49855;DHT22;35752;52.164;21.244;2022-11-02T08:36:34;13.10;99.90
49855;DHT22;35752;52.164;21.244;2022-11-02T08:39:01;13.20;99.90
49855;DHT22;35752;52.164;21.244;2022-11-02T08:41:26;13.30;99.90
49855;DHT22;35752;52.164;21.244;2022-11-02T08:43:52;13.30;99.90
49855;DHT22;35752;52.164;21.244;2022-11-02T08:46:17;13.50;99.90
49855;DHT22;35752;52.164;21.244;2022-11-02T08:48:43;13.50;99.90
49855;DHT22;35752;52.164;21.244;2022-11-02T08:51:09;13.50;99.90
49855;DHT22;35752;52.164;21.244;2022-11-02T08:53:34;13.50;99.90
49855;DHT22;35752;52.164;21.244;2022-11-02T08:56:00;13.50;99.90
49855;DHT22;35752;52.164;21.244;2022-11-02T08:58:25;13.60;99.90
49855;DHT22;35752;52.164;21.244;2022-11-02T09:00:51;13.60;99.90
49855;DHT22;35752;52.164;21.244;2022-11-02T09:03:17;13.70;99.90
49855;DHT22;35752;52.164;21.244;2022-11-02T09:05:45;13.80;99.90
49855;DHT22;35752;52.164;21.244;2022-11-02T09:08:14;13.90;99.90
49855;DHT22;35752;52.164;21.244;2022-11-02T09:10:41;13.90;99.90
49855;DHT22;35752;52.164;21.244;2022-11-02T09:13:07;14.00;99.90
49855;DHT22;35752;52.164;21.244;2022-11-02T09:15:35;14.00;99.90
49855;DHT22;35752;52.164;21.244;2022-11-02T09:18:01;14.10;99.90
49855;DHT22;35752;52.164;21.244;2022-11-02T09:20:26;14.20;99.90
49855;DHT22;35752;52.164;21.244;2022-11-02T09:22:52;14.20;99.90
49855;DHT22;35752;52.164;21.244;2022-11-02T09:25:17;14.20;99.90
49855;DHT22;35752;52.164;21.244;2022-11-02T09:27:43;14.20;99.90
49855;DHT22;35752;52.164;21.244;2022-11-02T09:30:09;14.30;99.90
49855;DHT22;35752;52.164;21.244;2022-11-02T09:32:35;14.30;99.90
49855;DHT22;35752;52.164;21.244;2022-11-02T09:35:01;14.40;99.90
49855;DHT22;35752;52.164;21.244;2022-11-02T09:37:28;14.40;99.90
49855;DHT22;35752;52.164;21.244;2022-11-02T09:39:54;14.20;99.90
49855;DHT22;35752;52.164;21.244;2022-11-02T09:42:24;14.10;99.90
49855;DHT22;35752;52.164;21.244;2022-11-02T09:45:00;14.20;99.90
49855;DHT22;35752;52.164;21.244;2022-11-02T09:47:28;14.20;99.90
49855;DHT22;35752;52.164;21.244;2022-11-02T09:49:55;14.20;99.90
49855;DHT22;35752;52.164;21.244;2022-11-02T09:52:26;14.30;99.90
49855;DHT22;35752;52.164;21.244;2022-11-02T09:54:52;14.30;99.90
49855;DHT22;35752;52.164;21.244;2022-11-02T09:57:37;14.30;99.90
49855;DHT22;35752;52.164;21.244;2022-11-02T10:00:04;14.40;99.90
49855;DHT22;35752;52.164;21.244;2022-11-02T10:02:37;14.40;99.90
49855;DHT22;35752;52.164;21.244;2022-11-02T10:10:14;14.30;99.90
49855;DHT22;35752;52.164;21.244;2022-11-02T10:15:09;14.30;99.90
49855;DHT22;35752;52.164;21.244;2022-11-02T10:17:35;14.40;99.90
49855;DHT22;35752;52.164;21.244;2022-11-02T10:20:06;14.30;99.90
49855;DHT22;35752;52.164;21.244;2022-11-02T10:22:36;14.20;99.90
49855;DHT22;35752;52.164;21.244;2022-11-02T10:25:04;14.30;99.90
49855;DHT22;35752;52.164;21.244;2022-11-02T10:27:32;14.20;99.90
49855;DHT22;35752;52.164;21.244;2022-11-02T10:32:28;14.20;99.90
49855;DHT22;35752;52.164;21.244;2022-11-02T10:34:55;14.20;99.90
49855;DHT22;35752;52.164;21.244;2022-11-02T10:40:18;14.00;99.90
49855;DHT22;35752;52.164;21.244;2022-11-02T10:48:17;14.00;99.90
49855;DHT22;35752;52.164;21.244;2022-11-02T10:58:48;14.10;99.90
49855;DHT22;35752;52.164;21.244;2022-11-02T11:01:14;14.10;99.90
49855;DHT22;35752;52.164;21.244;2022-11-02T11:06:35;14.10;99.90
49855;DHT22;35752;52.164;21.244;2022-11-02T11:09:05;14.10;99.90
49855;DHT22;35752;52.164;21.244;2022-11-02T11:11:33;14.10;99.90
49855;DHT22;35752;52.164;21.244;2022-11-02T11:16:38;14.20;99.90
49855;DHT22;35752;52.164;21.244;2022-11-02T11:21:50;14.20;99.90
49855;DHT22;35752;52.164;21.244;2022-11-02T11:24:25;14.20;99.90
49855;DHT22;35752;52.164;21.244;2022-11-02T11:29:33;14.30;99.90
49855;DHT22;35752;52.164;21.244;2022-11-02T11:31:59;14.40;99.90
49855;DHT22;35752;52.164;21.244;2022-11-02T11:34:26;14.40;99.90
49855;DHT22;35752;52.164;21.244;2022-11-02T11:37:02;14.40;99.90
49855;DHT22;35752;52.164;21.244;2022-11-02T11:39:31;14.50;99.90
49855;DHT22;35752;52.164;21.244;2022-11-02T11:41:57;14.60;99.90
49855;DHT22;35752;52.164;21.244;2022-11-02T11:44:24;14.50;99.90
49855;DHT22;35752;52.164;21.244;2022-11-02T11:46:51;14.60;99.90
49855;DHT22;35752;52.164;21.244;2022-11-02T11:51:50;14.70;99.90
49855;DHT22;35752;52.164;21.244;2022-11-02T11:54:26;14.90;99.90
49855;DHT22;35752;52.164;21.244;2022-11-02T11:56:55;14.90;99.90
49855;DHT22;35752;52.164;21.244;2022-11-02T12:01:54;15.20;99.90
49855;DHT22;35752;52.164;21.244;2022-11-02T12:04:28;15.30;99.90
49855;DHT22;35752;52.164;21.244;2022-11-02T12:06:57;15.50;99.90
49855;DHT22;35752;52.164;21.244;2022-11-02T12:09:28;15.60;99.90
49855;DHT22;35752;52.164;21.244;2022-11-02T12:15:05;15.60;99.90
49855;DHT22;35752;52.164;21.244;2022-11-02T12:17:36;15.60;99.90
49855;DHT22;35752;52.164;21.244;2022-11-02T12:22:59;15.50;99.90
49855;DHT22;35752;52.164;21.244;2022-11-02T12:30:59;15.40;99.90
49855;DHT22;35752;52.164;21.244;2022-11-02T12:33:29;15.20;99.90
49855;DHT22;35752;52.164;21.244;2022-11-02T12:36:16;15.30;99.90
49855;DHT22;35752;52.164;21.244;2022-11-02T12:44:19;15.00;99.90
49855;DHT22;35752;52.164;21.244;2022-11-02T12:52:23;14.60;99.90
49855;DHT22;35752;52.164;21.244;2022-11-02T12:54:52;14.60;99.90
49855;DHT22;35752;52.164;21.244;2022-11-02T12:57:21;14.70;99.90
49855;DHT22;35752;52.164;21.244;2022-11-02T12:59:48;14.60;99.90
49855;DHT22;35752;52.164;21.244;2022-11-02T13:05:05;14.60;99.90
49855;DHT22;35752;52.164;21.244;2022-11-02T13:07:43;14.60;99.90
49855;DHT22;35752;52.164;21.244;2022-11-02T13:10:14;14.50;99.90
49855;DHT22;35752;52.164;21.244;2022-11-02T13:12:41;14.50;99.90
49855;DHT22;35752;52.164;21.244;2022-11-02T13:15:12;14.50;99.90
49855;DHT22;35752;52.164;21.244;2022-11-02T13:20:29;14.50;99.90
49855;DHT22;35752;52.164;21.244;2022-11-02T13:23:02;14.50;99.90
49855;DHT22;35752;52.164;21.244;2022-11-02T13:25:33;14.40;99.90
49855;DHT22;35752;52.164;21.244;2022-11-02T13:30:24;14.40;99.90
49855;DHT22;35752;52.164;21.244;2022-11-02T13:37:54;14.30;99.90
49855;DHT22;35752;52.164;21.244;2022-11-02T13:40:34;14.30;99.90
49855;DHT22;35752;52.164;21.244;2022-11-02T13:45:32;14.20;99.90
49855;DHT22;35752;52.164;21.244;2022-11-02T13:50:25;14.10;99.90
49855;DHT22;35752;52.164;21.244;2022-11-02T13:52:56;14.10;99.90
49855;DHT22;35752;52.164;21.244;2022-11-02T13:55:39;14.00;99.90
49855;DHT22;35752;52.164;21.244;2022-11-02T13:58:13;14.00;99.90
49855;DHT22;35752;52.164;21.244;2022-11-02T14:00:43;13.90;99.90
49855;DHT22;35752;52.164;21.244;2022-11-02T14:03:17;13.90;99.90
49855;DHT22;35752;52.164;21.244;2022-11-02T14:06:30;13.90;99.90
49855;DHT22;35752;52.164;21.244;2022-11-02T14:08:34;13.90;99.90
49855;DHT22;35752;52.164;21.244;2022-11-02T14:26:56;13.60;99.90
49855;DHT22;35752;52.164;21.244;2022-11-02T14:34:48;13.40;99.90
49855;DHT22;35752;52.164;21.244;2022-11-02T14:39:51;13.30;99.90
49855;DHT22;35752;52.164;21.244;2022-11-02T14:44:55;13.20;99.90
49855;DHT22;35752;52.164;21.244;2022-11-02T14:47:25;13.10;99.90
49855;DHT22;35752;52.164;21.244;2022-11-02T14:49:53;13.10;99.90
49855;DHT22;35752;52.164;21.244;2022-11-02T14:52:27;13.00;99.90
49855;DHT22;35752;52.164;21.244;2022-11-02T14:55:05;12.90;99.90
49855;DHT22;35752;52.164;21.244;2022-11-02T14:59:57;12.80;99.90
49855;DHT22;35752;52.164;21.244;2022-11-02T15:04:53;12.60;99.90
49855;DHT22;35752;52.164;21.244;2022-11-02T15:07:19;12.60;99.90
49855;DHT22;35752;52.164;21.244;2022-11-02T15:12:32;12.30;99.90
49855;DHT22;35752;52.164;21.244;2022-11-02T15:15:23;12.30;99.90
49855;DHT22;35752;52.164;21.244;2022-11-02T15:17:50;12.20;99.90
49855;DHT22;35752;52.164;21.244;2022-11-02T15:20:23;12.10;99.90
49855;DHT22;35752;52.164;21.244;2022-11-02T15:22:49;12.10;99.90
49855;DHT22;35752;52.164;21.244;2022-11-02T15:27:48;12.00;99.90
49855;DHT22;35752;52.164;21.244;2022-11-02T15:30:17;11.90;99.90
49855;DHT22;35752;52.164;21.244;2022-11-02T15:32:44;11.90;99.90
49855;DHT22;35752;52.164;21.244;2022-11-02T15:35:22;11.80;99.90
49855;DHT22;35752;52.164;21.244;2022-11-02T15:37:52;11.80;99.90
49855;DHT22;35752;52.164;21.244;2022-11-02T15:40:20;11.80;99.90
49855;DHT22;35752;52.164;21.244;2022-11-02T15:53:21;11.50;99.90
49855;DHT22;35752;52.164;21.244;2022-11-02T15:55:58;11.50;99.90
49855;DHT22;35752;52.164;21.244;2022-11-02T16:01:15;11.50;99.90
49855;DHT22;35752;52.164;21.244;2022-11-02T16:03:42;11.30;99.90
49855;DHT22;35752;52.164;21.244;2022-11-02T16:06:08;11.20;99.90
49855;DHT22;35752;52.164;21.244;2022-11-02T16:08:35;11.10;99.90
49855;DHT22;35752;52.164;21.244;2022-11-02T16:11:09;11.00;99.90
49855;DHT22;35752;52.164;21.244;2022-11-02T16:13:37;11.00;99.90
49855;DHT22;35752;52.164;21.244;2022-11-02T16:16:05;11.00;99.90
49855;DHT22;35752;52.164;21.244;2022-11-02T16:18:35;10.90;99.90
49855;DHT22;35752;52.164;21.244;2022-11-02T16:21:01;10.80;99.90
49855;DHT22;35752;52.164;21.244;2022-11-02T16:23:35;10.80;99.90
49855;DHT22;35752;52.164;21.244;2022-11-02T16:26:03;10.70;99.90
49855;DHT22;35752;52.164;21.244;2022-11-02T16:28:32;10.70;99.90
49855;DHT22;35752;52.164;21.244;2022-11-02T16:33:49;10.70;99.90
49855;DHT22;35752;52.164;21.244;2022-11-02T16:36:17;10.70;99.90
49855;DHT22;35752;52.164;21.244;2022-11-02T16:38:59;10.60;99.90
49855;DHT22;35752;52.164;21.244;2022-11-02T16:41:26;10.60;99.90
49855;DHT22;35752;52.164;21.244;2022-11-02T16:43:52;10.50;99.90
49855;DHT22;35752;52.164;21.244;2022-11-02T16:46:26;10.50;99.90
49855;DHT22;35752;52.164;21.244;2022-11-02T16:49:12;10.40;99.90
49855;DHT22;35752;52.164;21.244;2022-11-02T16:51:39;10.40;99.90
49855;DHT22;35752;52.164;21.244;2022-11-02T16:54:25;10.30;99.90
49855;DHT22;35752;52.164;21.244;2022-11-02T16:56:51;10.30;99.90
49855;DHT22;35752;52.164;21.244;2022-11-02T16:59:21;10.20;99.90
49855;DHT22;35752;52.164;21.244;2022-11-02T17:01:48;10.10;99.90
49855;DHT22;35752;52.164;21.244;2022-11-02T17:06:39;10.00;99.90
49855;DHT22;35752;52.164;21.244;2022-11-02T17:09:13;9.90;99.90
49855;DHT22;35752;52.164;21.244;2022-11-02T17:11:41;9.90;99.90
49855;DHT22;35752;52.164;21.244;2022-11-02T17:14:07;9.80;99.90
49855;DHT22;35752;52.164;21.244;2022-11-02T17:16:35;9.80;99.90
49855;DHT22;35752;52.164;21.244;2022-11-02T17:19:03;9.80;99.90
49855;DHT22;35752;52.164;21.244;2022-11-02T17:21:29;9.70;99.90
49855;DHT22;35752;52.164;21.244;2022-11-02T17:23:55;9.70;99.90
49855;DHT22;35752;52.164;21.244;2022-11-02T17:28:50;9.50;99.90
49855;DHT22;35752;52.164;21.244;2022-11-02T17:31:17;9.40;99.90
49855;DHT22;35752;52.164;21.244;2022-11-02T17:33:44;9.30;99.90
49855;DHT22;35752;52.164;21.244;2022-11-02T17:36:10;9.40;99.90
49855;DHT22;35752;52.164;21.244;2022-11-02T17:38:35;9.40;99.90
49855;DHT22;35752;52.164;21.244;2022-11-02T17:41:01;9.40;99.90
49855;DHT22;35752;52.164;21.244;2022-11-02T17:43:47;9.40;99.90
49855;DHT22;35752;52.164;21.244;2022-11-02T17:46:12;9.40;99.90
49855;DHT22;35752;52.164;21.244;2022-11-02T17:48:38;9.30;99.90
49855;DHT22;35752;52.164;21.244;2022-11-02T17:51:03;9.20;99.90
49855;DHT22;35752;52.164;21.244;2022-11-02T17:53:29;9.10;99.90
49855;DHT22;35752;52.164;21.244;2022-11-02T17:55:54;9.10;99.90
49855;DHT22;35752;52.164;21.244;2022-11-02T17:58:20;8.90;99.90
49855;DHT22;35752;52.164;21.244;2022-11-02T18:00:46;8.80;99.90